Terminal Aerodrome Forecast
Issued by NWS Denver/Boulder, CO

Home | Current Version | Previous Version | Text Only | Print | Product List | Glossary On
Versions: 1 2 3 4 5 6 7 8 9 10 11 12 13 14 15 16 17 18 19 20 21 22 23 24 25 26 27 28 29 30 31 32 33 34 35
000
FTUS45 KBOU 241503 AAB
TAFDEN
TAF AMD
KDEN 241503Z 2415/2518 20010KT P6SM FEW070 SCT220
     FM241900 32010KT P6SM SCT090 SCT150
     FM250200 36007KT P6SM SCT150=

USA.gov is the U.S. government's official web portal to all federal, state and local government web resources and services.